createdAt,value
2017-11-14T00:01:15.861Z,69.05
2017-11-14T00:03:43.436Z,68.72
2017-11-14T00:06:10.985Z,69.95
2017-11-14T00:08:38.572Z,70.47
2017-11-14T00:11:06.098Z,69.07
2017-11-14T00:13:33.716Z,69.80
2017-11-14T00:16:01.386Z,68.96
2017-11-14T00:18:28.913Z,68.87
2017-11-14T00:20:56.514Z,68.75
2017-11-14T00:23:24.196Z,69.10
2017-11-14T00:25:51.731Z,68.02
2017-11-14T00:28:19.269Z,68.42
2017-11-14T00:30:46.878Z,68.66
2017-11-14T00:33:14.467Z,68.34
2017-11-14T00:35:42.141Z,67.86
2017-11-14T00:38:09.850Z,67.72
2017-11-14T00:40:37.380Z,67.54
2017-11-14T00:43:04.952Z,67.90
2017-11-14T00:45:32.526Z,67.51
2017-11-14T00:48:00.096Z,68.37
2017-11-14T00:50:27.699Z,67.75
2017-11-14T00:52:55.305Z,69.12
2017-11-14T00:55:22.824Z,69.56
2017-11-14T00:57:50.381Z,69.51
2017-11-14T01:00:17.974Z,70.21
2017-11-14T01:02:45.496Z,70.44
2017-11-14T01:05:13.054Z,70.78
2017-11-14T01:07:40.720Z,69.57
2017-11-14T01:10:08.289Z,69.03
2017-11-14T01:12:35.838Z,68.26
2017-11-14T01:15:03.415Z,68.22
2017-11-14T01:17:31.067Z,68.07
2017-11-14T01:19:58.661Z,68.50
2017-11-14T01:22:26.272Z,68.81
2017-11-14T01:24:53.796Z,68.70
2017-11-14T01:27:21.313Z,70.28
2017-11-14T01:29:48.906Z,69.98
2017-11-14T01:32:16.475Z,70.44
2017-11-14T01:34:44.016Z,69.87
2017-11-14T01:37:11.647Z,70.02
2017-11-14T01:39:39.324Z,69.08
2017-11-14T01:42:06.892Z,68.87
2017-11-14T01:44:34.475Z,68.82
2017-11-14T01:47:02.062Z,70.01
2017-11-14T01:49:29.592Z,71.86
2017-11-14T01:51:57.140Z,71.19
2017-11-14T01:54:24.768Z,70.10
2017-11-14T01:56:52.306Z,69.79
2017-11-14T01:59:19.931Z,70.12
2017-11-14T02:01:47.479Z,71.09
2017-11-14T02:04:15.032Z,70.35
2017-11-14T02:06:42.567Z,70.83
2017-11-14T02:09:10.176Z,69.19
2017-11-14T02:11:37.760Z,70.18
2017-11-14T02:14:05.386Z,71.34
2017-11-14T02:16:32.980Z,72.00
2017-11-14T02:19:00.561Z,71.39
2017-11-14T02:21:28.090Z,72.00
2017-11-14T02:23:55.782Z,72.72
2017-11-14T02:26:23.483Z,72.93
2017-11-14T02:28:51.062Z,72.95
2017-11-14T02:31:18.720Z,73.18
2017-11-14T02:33:46.377Z,71.64
2017-11-14T02:36:13.976Z,71.64
2017-11-14T02:38:41.575Z,72.13
2017-11-14T02:41:09.207Z,72.36
2017-11-14T02:43:36.786Z,71.80
2017-11-14T02:46:04.398Z,71.28
2017-11-14T02:48:31.943Z,71.89
2017-11-14T02:50:59.521Z,72.01
2017-11-14T02:53:27.204Z,72.76
2017-11-14T02:55:54.758Z,71.95
2017-11-14T02:58:22.372Z,71.84
2017-11-14T03:00:50.015Z,71.14
2017-11-14T03:03:17.544Z,71.12
2017-11-14T03:05:46.320Z,71.23
2017-11-14T03:08:13.884Z,71.68
2017-11-14T03:10:41.468Z,72.12
2017-11-14T03:13:09.027Z,71.19
2017-11-14T03:15:36.688Z,71.50
2017-11-14T03:18:04.240Z,71.81
2017-11-14T03:20:31.815Z,72.39
2017-11-14T03:22:59.395Z,69.99
2017-11-14T03:25:26.937Z,69.75
2017-11-14T03:27:54.518Z,71.44
2017-11-14T03:30:22.147Z,71.38
2017-11-14T03:32:49.720Z,71.85
2017-11-14T03:35:17.536Z,71.62
2017-11-14T03:37:45.111Z,72.39
2017-11-14T03:40:12.668Z,71.62
2017-11-14T03:42:40.863Z,70.12
2017-11-14T03:45:08.553Z,71.33
2017-11-14T03:47:36.891Z,70.33
2017-11-14T03:50:04.442Z,70.38
2017-11-14T03:52:32.122Z,70.59
2017-11-14T03:54:59.659Z,71.81
2017-11-14T03:57:27.192Z,71.09
2017-11-14T03:59:54.796Z,72.41
2017-11-14T04:02:22.404Z,72.33
2017-11-14T04:04:49.954Z,72.81
2017-11-14T04:07:17.506Z,72.19
2017-11-14T04:09:45.113Z,70.54
2017-11-14T04:12:12.656Z,70.33
2017-11-14T04:14:40.318Z,70.30
2017-11-14T04:17:07.932Z,71.95
2017-11-14T04:19:35.478Z,71.61
2017-11-14T04:22:03.100Z,72.62
2017-11-14T04:24:30.720Z,73.43
2017-11-14T04:26:58.327Z,72.25
2017-11-14T04:29:25.848Z,70.63
2017-11-14T04:31:53.440Z,71.05
2017-11-14T04:34:20.971Z,70.85
2017-11-14T04:36:48.503Z,71.50
2017-11-14T04:39:16.134Z,71.75
2017-11-14T04:41:43.681Z,73.08
2017-11-14T04:44:11.248Z,72.09
2017-11-14T04:46:38.835Z,71.55
2017-11-14T04:49:06.400Z,71.52
2017-11-14T04:51:34.181Z,72.53
2017-11-14T04:54:01.755Z,72.39
2017-11-14T04:56:29.270Z,71.85
2017-11-14T04:58:56.845Z,71.92
2017-11-14T05:01:24.450Z,71.59
2017-11-14T05:03:52.002Z,75.33
2017-11-14T05:06:19.555Z,83.71
2017-11-14T05:08:48.016Z,78.12
2017-11-14T05:11:15.637Z,69.76
2017-11-14T05:13:43.167Z,68.06
2017-11-14T05:16:10.797Z,69.13
2017-11-14T05:18:38.376Z,69.42
2017-11-14T05:21:06.154Z,68.97
2017-11-14T05:23:33.782Z,70.32
2017-11-14T05:26:01.309Z,71.17
2017-11-14T05:28:28.952Z,71.42
2017-11-14T05:30:56.588Z,71.89
2017-11-14T05:33:24.174Z,71.62
2017-11-14T05:35:51.699Z,71.02
2017-11-14T05:38:19.383Z,71.22
2017-11-14T05:40:47.148Z,69.72
2017-11-14T05:43:14.677Z,71.15
2017-11-14T05:45:42.404Z,72.28
2017-11-14T05:48:09.936Z,73.68
2017-11-14T05:50:37.614Z,73.31
2017-11-14T05:53:05.244Z,73.61
2017-11-14T05:55:32.930Z,73.45
2017-11-14T05:58:00.539Z,72.65
2017-11-14T06:00:28.174Z,72.59
2017-11-14T06:02:55.749Z,72.32
2017-11-14T06:05:23.538Z,71.86
2017-11-14T06:07:51.120Z,71.73
2017-11-14T06:10:18.731Z,70.74
2017-11-14T06:12:46.353Z,70.19
2017-11-14T06:15:14.028Z,70.73
2017-11-14T06:17:41.623Z,70.71
2017-11-14T06:20:09.214Z,70.16
2017-11-14T06:22:36.826Z,70.89
2017-11-14T06:25:05.522Z,71.32
2017-11-14T06:27:33.150Z,71.59
2017-11-14T06:30:00.770Z,70.74
2017-11-14T06:32:28.445Z,69.63
2017-11-14T06:34:55.993Z,70.11
2017-11-14T06:37:23.548Z,70.65
2017-11-14T06:39:51.626Z,70.24
2017-11-14T06:42:19.153Z,69.37
2017-11-14T06:44:46.731Z,69.94
2017-11-14T06:47:14.306Z,69.38
2017-11-14T06:49:41.856Z,70.48
2017-11-14T06:52:09.424Z,69.59
2017-11-14T06:54:37.051Z,70.04
2017-11-14T06:57:04.621Z,69.74
2017-11-14T06:59:32.466Z,69.99
2017-11-14T07:02:00.097Z,70.40
2017-11-14T07:04:27.686Z,70.35
2017-11-14T07:06:55.271Z,69.89
2017-11-14T07:09:22.884Z,69.35
2017-11-14T07:11:50.482Z,69.08
2017-11-14T07:14:18.055Z,68.33
2017-11-14T07:16:45.849Z,68.68
2017-11-14T07:19:13.440Z,68.45
2017-11-14T07:21:41.060Z,68.33
2017-11-14T07:24:08.665Z,68.05
2017-11-14T07:26:36.419Z,67.88
2017-11-14T07:29:04.016Z,68.10
2017-11-14T07:31:31.641Z,67.54
2017-11-14T07:33:59.321Z,67.55
2017-11-14T07:36:26.947Z,66.32
2017-11-14T07:38:54.555Z,67.08
2017-11-14T07:41:22.140Z,67.32
2017-11-14T07:43:49.691Z,66.91
2017-11-14T07:46:17.304Z,66.28
2017-11-14T07:48:44.824Z,65.46
2017-11-14T07:51:12.423Z,65.03
2017-11-14T07:53:40.219Z,64.78
2017-11-14T07:56:07.835Z,63.97
2017-11-14T07:58:35.418Z,62.94
2017-11-14T08:01:03.039Z,61.87
2017-11-14T08:03:31.559Z,61.95
2017-11-14T08:05:59.447Z,61.43
2017-11-14T08:08:27.138Z,61.45
2017-11-14T08:10:54.834Z,59.84
2017-11-14T08:13:22.453Z,61.23
2017-11-14T08:15:50.110Z,58.03
2017-11-14T08:18:17.674Z,57.77
2017-11-14T08:20:45.316Z,54.87
2017-11-14T08:23:12.910Z,53.41
2017-11-14T08:25:40.477Z,52.43
2017-11-14T08:28:08.065Z,49.00
2017-11-14T08:30:35.680Z,46.58
2017-11-14T08:33:04.054Z,44.36
2017-11-14T08:35:32.329Z,41.64
2017-11-14T08:38:00.086Z,42.30
2017-11-14T08:40:28.556Z,39.61
2017-11-14T08:42:56.134Z,40.29
2017-11-14T08:45:23.804Z,37.54
2017-11-14T08:47:51.512Z,35.56
2017-11-14T08:50:19.091Z,36.57
2017-11-14T08:52:46.718Z,34.76
2017-11-14T08:55:14.307Z,34.04
2017-11-14T08:57:42.175Z,33.83
2017-11-14T09:00:11.333Z,33.55
2017-11-14T09:02:38.920Z,33.20
2017-11-14T09:05:07.552Z,33.02
2017-11-14T09:07:38.336Z,33.07
2017-11-14T09:10:08.249Z,32.11
2017-11-14T09:12:37.507Z,34.13
2017-11-14T09:15:06.393Z,32.84
2017-11-14T09:17:35.432Z,31.77
2017-11-14T09:20:04.496Z,31.44
2017-11-14T09:22:33.436Z,31.74
2017-11-14T09:25:01.088Z,35.29
2017-11-14T09:27:29.498Z,37.11
2017-11-14T09:29:57.179Z,36.68
2017-11-14T09:32:24.826Z,37.86
2017-11-14T09:34:52.466Z,37.38
2017-11-14T09:37:20.102Z,38.45
2017-11-14T09:39:48.547Z,38.19
2017-11-14T09:42:17.971Z,40.25
2017-11-14T09:44:46.613Z,40.72
2017-11-14T09:47:14.871Z,41.31
2017-11-14T09:49:44.694Z,42.29
2017-11-14T09:52:12.309Z,42.32
2017-11-14T09:54:40.057Z,43.37
2017-11-14T09:57:08.057Z,45.99
2017-11-14T09:59:35.695Z,45.02
2017-11-14T10:02:03.303Z,44.07
2017-11-14T10:04:31.203Z,45.07
2017-11-14T10:06:58.898Z,47.79
2017-11-14T10:09:26.544Z,47.89
2017-11-14T10:11:54.148Z,45.56
2017-11-14T10:14:21.979Z,44.66
2017-11-14T10:16:49.799Z,45.71
2017-11-14T10:19:17.422Z,47.51
2017-11-14T10:21:45.014Z,47.95
2017-11-14T10:24:12.679Z,44.72
2017-11-14T10:26:40.507Z,44.13
2017-11-14T10:29:08.259Z,43.86
2017-11-14T10:31:36.012Z,45.05
2017-11-14T10:34:03.926Z,45.99
2017-11-14T10:36:31.616Z,45.32
2017-11-14T10:38:59.329Z,46.09
2017-11-14T10:41:26.939Z,46.83
2017-11-14T10:43:54.540Z,46.09
2017-11-14T10:46:22.226Z,47.61
2017-11-14T10:48:49.846Z,47.43
2017-11-14T10:51:17.491Z,47.32
2017-11-14T10:53:45.139Z,49.13
2017-11-14T10:56:12.776Z,47.50
2017-11-14T10:58:40.357Z,47.88
2017-11-14T11:01:07.968Z,48.92
2017-11-14T11:03:35.563Z,49.03
2017-11-14T11:06:06.036Z,48.68
2017-11-14T11:08:33.728Z,50.28
2017-11-14T11:11:01.657Z,49.96
2017-11-14T11:13:29.357Z,50.58
2017-11-14T11:15:57.003Z,50.54
2017-11-14T11:18:24.573Z,51.58
2017-11-14T11:20:52.219Z,52.38
2017-11-14T11:23:20.720Z,50.76
2017-11-14T11:25:48.465Z,50.40
2017-11-14T11:28:16.539Z,50.20
2017-11-14T11:30:44.236Z,50.15
2017-11-14T11:33:11.988Z,50.33
2017-11-14T11:35:39.631Z,50.78
2017-11-14T11:38:07.283Z,50.24
2017-11-14T11:40:34.965Z,51.15
2017-11-14T11:43:03.622Z,51.65
2017-11-14T11:45:31.270Z,51.48
2017-11-14T11:47:58.896Z,51.32
2017-11-14T11:50:27.293Z,51.26
2017-11-14T11:52:54.954Z,50.49
2017-11-14T11:55:22.758Z,50.19
2017-11-14T11:57:51.048Z,50.53
2017-11-14T12:00:18.810Z,49.77
2017-11-14T12:02:47.199Z,50.07
2017-11-14T12:05:14.886Z,50.43
2017-11-14T12:07:42.579Z,50.05
2017-11-14T12:10:10.277Z,50.84
2017-11-14T12:12:37.926Z,51.27
2017-11-14T12:15:05.885Z,51.39
2017-11-14T12:17:38.370Z,52.40
2017-11-14T12:20:06.952Z,52.65
2017-11-14T12:22:34.771Z,52.06
2017-11-14T12:25:02.436Z,52.49
2017-11-14T12:27:30.066Z,53.39
2017-11-14T12:29:57.636Z,52.66
2017-11-14T12:32:25.415Z,53.12
2017-11-14T12:34:53.023Z,52.98
2017-11-14T12:37:21.272Z,53.77
2017-11-14T12:39:49.468Z,54.05
2017-11-14T12:42:17.192Z,54.30
2017-11-14T12:44:45.916Z,53.40
2017-11-14T12:47:13.624Z,53.53
2017-11-14T12:49:41.345Z,53.40
2017-11-14T12:52:09.335Z,53.64
2017-11-14T12:54:37.067Z,52.79
2017-11-14T12:57:05.563Z,53.36
2017-11-14T12:59:33.351Z,53.69
2017-11-14T13:02:01.008Z,54.52
2017-11-14T13:04:28.786Z,54.07
2017-11-14T13:06:56.537Z,54.00
2017-11-14T13:09:24.160Z,54.82
2017-11-14T13:11:51.979Z,55.72
2017-11-14T13:14:20.320Z,56.11
2017-11-14T13:16:47.978Z,56.41
2017-11-14T13:19:15.595Z,56.52
2017-11-14T13:21:43.243Z,57.11
2017-11-14T13:24:12.854Z,57.05
2017-11-14T13:26:40.694Z,57.43
2017-11-14T13:29:08.738Z,57.39
2017-11-14T13:31:37.351Z,57.67
2017-11-14T13:34:04.998Z,57.79
2017-11-14T13:36:34.811Z,57.98
2017-11-14T13:39:02.641Z,58.71
2017-11-14T13:41:30.383Z,58.50
2017-11-14T13:44:00.969Z,58.78
2017-11-14T13:46:28.675Z,59.40
2017-11-14T13:48:56.805Z,58.65
2017-11-14T13:51:24.897Z,58.34
2017-11-14T13:53:53.308Z,59.66
2017-11-14T13:56:20.875Z,59.50
2017-11-14T13:58:48.618Z,59.27
2017-11-14T14:01:17.110Z,59.14
2017-11-14T14:03:45.542Z,58.96
2017-11-14T14:06:15.569Z,58.79
2017-11-14T14:08:57.795Z,59.37
2017-11-14T14:11:27.611Z,59.78
2017-11-14T14:16:38.852Z,59.31
2017-11-14T14:19:10.539Z,59.78
2017-11-14T14:21:39.029Z,60.05
2017-11-14T14:24:06.776Z,61.42
2017-11-14T14:26:34.611Z,60.64
2017-11-14T14:32:18.092Z,60.45
2017-11-14T14:34:48.229Z,60.70
2017-11-14T14:37:16.592Z,60.52
2017-11-14T14:39:47.390Z,60.71
2017-11-14T14:42:15.171Z,61.04
2017-11-14T14:44:43.826Z,60.76
2017-11-14T14:47:11.648Z,60.84
2017-11-14T14:49:47.462Z,61.68
2017-11-14T14:52:15.776Z,60.90
2017-11-14T14:54:44.812Z,60.88
2017-11-14T14:57:13.419Z,60.83
2017-11-14T14:59:41.756Z,61.24
2017-11-14T15:02:20.462Z,62.30
2017-11-14T15:04:50.092Z,61.49
2017-11-14T15:07:23.811Z,62.17
2017-11-14T15:09:57.946Z,61.72
2017-11-14T15:19:08.871Z,62.42
2017-11-14T15:21:40.566Z,61.74
2017-11-14T15:24:08.160Z,61.49
2017-11-14T15:27:03.980Z,62.52
2017-11-14T15:29:34.637Z,62.28
2017-11-14T15:32:07.007Z,62.93
2017-11-14T15:34:34.947Z,62.05
2017-11-14T15:37:02.601Z,62.01
2017-11-14T15:39:30.178Z,62.14
2017-11-14T15:41:57.743Z,62.80
2017-11-14T15:44:25.412Z,62.96
2017-11-14T15:46:53.523Z,62.37
2017-11-14T15:49:21.300Z,62.93
2017-11-14T15:51:49.081Z,62.04
2017-11-14T15:54:16.837Z,62.95
2017-11-14T15:56:44.400Z,63.06
2017-11-14T15:59:12.085Z,62.48
2017-11-14T16:01:39.765Z,62.02
2017-11-14T16:04:07.516Z,62.04
2017-11-14T16:06:35.079Z,61.54
2017-11-14T16:09:02.759Z,62.21
2017-11-14T16:11:30.583Z,62.52
2017-11-14T16:13:58.155Z,62.37
2017-11-14T16:16:31.927Z,63.18
2017-11-14T16:18:59.790Z,61.68
2017-11-14T16:21:27.450Z,62.20
2017-11-14T16:23:55.247Z,62.08
2017-11-14T16:26:22.808Z,62.47
2017-11-14T16:28:50.471Z,62.50
2017-11-14T16:31:18.229Z,61.59
2017-11-14T16:33:46.040Z,61.53
2017-11-14T16:36:13.625Z,64.70
2017-11-14T16:38:41.346Z,63.22
2017-11-14T16:41:08.983Z,61.44
2017-11-14T16:43:36.615Z,61.22
2017-11-14T16:46:04.566Z,61.43
2017-11-14T16:48:32.153Z,61.07
2017-11-14T16:51:00.280Z,61.33
2017-11-14T16:53:27.973Z,61.30
2017-11-14T16:55:55.658Z,62.73
2017-11-14T16:58:23.286Z,61.87
2017-11-14T17:00:50.959Z,62.48
2017-11-14T17:03:18.606Z,61.82
2017-11-14T17:05:46.288Z,61.77
2017-11-14T17:08:13.967Z,62.11
2017-11-14T17:10:41.565Z,61.86
2017-11-14T17:13:09.302Z,62.43
2017-11-14T17:15:36.925Z,62.16
2017-11-14T17:18:04.564Z,62.06
2017-11-14T17:20:32.619Z,62.24
2017-11-14T17:23:17.622Z,62.12
2017-11-14T17:25:45.329Z,61.93
2017-11-14T17:28:12.886Z,61.82
2017-11-14T17:30:40.572Z,61.84
2017-11-14T17:33:08.095Z,61.96
2017-11-14T17:35:35.710Z,62.24
2017-11-14T17:38:03.393Z,62.71
2017-11-14T17:40:31.127Z,62.60
2017-11-14T17:42:59.003Z,62.23
2017-11-14T17:45:27.507Z,62.86
2017-11-14T17:47:55.100Z,62.76
2017-11-14T17:50:22.652Z,62.58
2017-11-14T17:52:50.300Z,62.38
2017-11-14T17:55:18.112Z,62.94
2017-11-14T17:57:45.911Z,62.73
2017-11-14T18:00:13.634Z,62.14
2017-11-14T18:02:41.328Z,61.44
2017-11-14T18:05:09.899Z,61.49
2017-11-14T18:07:37.608Z,61.30
2017-11-14T18:10:05.250Z,61.30
2017-11-14T18:12:34.617Z,62.07
2017-11-14T18:15:02.280Z,62.32
2017-11-14T18:17:29.860Z,61.52
2017-11-14T18:19:57.470Z,61.98
2017-11-14T18:22:25.070Z,62.45
2017-11-14T18:24:52.610Z,61.53
2017-11-14T18:27:20.221Z,61.88
2017-11-14T18:29:47.929Z,62.08
2017-11-14T18:32:15.619Z,62.13
2017-11-14T18:34:43.203Z,61.82
2017-11-14T18:37:15.607Z,61.69
2017-11-14T18:39:43.279Z,61.45
2017-11-14T18:42:11.321Z,60.96
2017-11-14T18:44:38.979Z,61.27
2017-11-14T18:47:06.640Z,62.12
2017-11-14T18:49:34.228Z,61.86
2017-11-14T18:52:01.832Z,61.49
2017-11-14T18:54:30.027Z,62.37
2017-11-14T18:56:58.588Z,61.53
2017-11-14T18:59:27.355Z,61.84
2017-11-14T19:01:55.081Z,61.36
2017-11-14T19:04:22.699Z,61.42
2017-11-14T19:06:50.228Z,61.70
2017-11-14T19:09:18.232Z,62.20
2017-11-14T19:11:45.841Z,61.60
2017-11-14T19:14:13.412Z,62.30
2017-11-14T19:16:41.075Z,61.82
2017-11-14T19:19:08.754Z,61.86
2017-11-14T19:21:37.043Z,62.03
2017-11-14T19:24:05.355Z,62.21
2017-11-14T19:26:32.968Z,62.09
2017-11-14T19:29:00.499Z,62.32
2017-11-14T19:31:29.029Z,62.24
2017-11-14T19:33:56.592Z,62.89
2017-11-14T19:36:24.148Z,63.13
2017-11-14T19:38:51.778Z,64.30
2017-11-14T19:41:19.543Z,63.51
2017-11-14T19:43:47.233Z,63.18
2017-11-14T19:46:14.831Z,62.76
2017-11-14T19:48:42.380Z,63.37
2017-11-14T19:51:10.029Z,63.27
2017-11-14T19:53:37.630Z,62.68
2017-11-14T19:56:06.353Z,63.04
2017-11-14T19:58:34.708Z,62.94
2017-11-14T20:01:03.059Z,63.31
2017-11-14T20:03:30.666Z,62.66
2017-11-14T20:06:06.687Z,62.63
2017-11-14T20:08:34.282Z,62.27
2017-11-14T20:11:01.815Z,62.43
2017-11-14T20:13:29.487Z,62.74
2017-11-14T20:15:57.377Z,63.02
2017-11-14T20:18:24.939Z,63.86
2017-11-14T20:20:52.608Z,63.37
2017-11-14T20:23:20.280Z,64.07
2017-11-14T20:25:48.119Z,63.35
2017-11-14T20:28:16.611Z,63.39
2017-11-14T20:30:44.450Z,63.65
2017-11-14T20:33:12.089Z,63.46
2017-11-14T20:35:39.789Z,63.56
2017-11-14T20:38:07.418Z,63.90
2017-11-14T20:40:35.068Z,63.22
2017-11-14T20:43:02.663Z,63.12
2017-11-14T20:45:30.301Z,64.40
2017-11-14T20:47:57.893Z,63.37
2017-11-14T20:50:26.331Z,62.71
2017-11-14T20:52:53.973Z,62.95
2017-11-14T20:55:21.519Z,64.27
2017-11-14T20:57:49.095Z,64.64
2017-11-14T21:00:16.734Z,64.51
2017-11-14T21:02:44.310Z,64.31
2017-11-14T21:05:11.875Z,64.16
2017-11-14T21:07:39.482Z,64.17
2017-11-14T21:10:07.025Z,63.56
2017-11-14T21:12:34.555Z,62.94
2017-11-14T21:15:02.828Z,63.94
2017-11-14T21:17:30.385Z,65.24
2017-11-14T21:19:58.222Z,63.30
2017-11-14T21:22:25.828Z,63.19
2017-11-14T21:24:53.342Z,62.96
2017-11-14T21:27:20.969Z,63.89
2017-11-14T21:29:48.553Z,64.09
2017-11-14T21:32:16.959Z,63.62
2017-11-14T21:34:44.558Z,63.46
2017-11-14T21:37:12.375Z,63.28
2017-11-14T21:39:40.000Z,63.58
2017-11-14T21:42:08.052Z,63.32
2017-11-14T21:44:35.806Z,62.75
2017-11-14T21:47:03.470Z,62.74
2017-11-14T21:49:30.999Z,63.23
2017-11-14T21:51:58.562Z,62.59
2017-11-14T21:54:26.306Z,62.19
2017-11-14T21:56:54.948Z,64.32
2017-11-14T21:59:22.485Z,63.64
2017-11-14T22:01:50.107Z,63.06
2017-11-14T22:04:17.650Z,62.65
2017-11-14T22:06:45.403Z,62.83
2017-11-14T22:09:12.992Z,62.95
2017-11-14T22:11:40.510Z,62.64
2017-11-14T22:14:08.051Z,63.33
2017-11-14T22:16:36.118Z,62.90
2017-11-14T22:19:03.663Z,62.83
2017-11-14T22:21:35.435Z,62.76
2017-11-14T22:24:04.013Z,63.00
2017-11-14T22:26:33.318Z,63.56
2017-11-14T22:29:01.877Z,63.71
2017-11-14T22:31:29.595Z,64.07
2017-11-14T22:33:57.174Z,62.95
2017-11-14T22:36:24.968Z,63.35
2017-11-14T22:38:52.552Z,62.90
2017-11-14T22:41:20.175Z,63.53
2017-11-14T22:43:47.772Z,63.37
2017-11-14T22:46:15.371Z,63.60
2017-11-14T22:48:42.895Z,63.43
2017-11-14T22:51:10.530Z,64.28
2017-11-14T22:53:38.145Z,63.99
2017-11-14T22:56:05.728Z,64.27
2017-11-14T22:58:33.304Z,63.26
2017-11-14T23:01:01.068Z,62.73
2017-11-14T23:03:28.659Z,64.41
2017-11-14T23:05:56.649Z,64.12
2017-11-14T23:08:24.359Z,63.62
2017-11-14T23:10:51.884Z,64.01
2017-11-14T23:13:19.772Z,63.46
2017-11-14T23:15:47.430Z,63.49
2017-11-14T23:18:15.033Z,64.29
2017-11-14T23:20:42.859Z,62.92
2017-11-14T23:23:10.447Z,63.05
2017-11-14T23:25:38.019Z,62.92
2017-11-14T23:28:05.770Z,63.17
2017-11-14T23:30:33.452Z,63.79
2017-11-14T23:33:01.231Z,63.27
2017-11-14T23:35:29.036Z,63.08
2017-11-14T23:37:57.204Z,63.19
2017-11-14T23:40:25.027Z,63.59
2017-11-14T23:42:52.822Z,63.19
2017-11-14T23:45:22.083Z,62.91
2017-11-14T23:47:50.398Z,62.41
2017-11-14T23:50:18.165Z,63.31
2017-11-14T23:52:45.780Z,63.75
2017-11-14T23:55:14.483Z,63.29
2017-11-14T23:57:42.098Z,63.16
